sensor_id;sensor_type;location;lat;lon;timestamp;temperature;humidity
8436;DHT22;4255;48.730;9.156;2022-11-03T00:02:24;8.80;99.90
8436;DHT22;4255;48.730;9.156;2022-11-03T00:04:49;8.90;99.90
8436;DHT22;4255;48.730;9.156;2022-11-03T00:07:21;9.00;99.90
8436;DHT22;4255;48.730;9.156;2022-11-03T00:09:47;9.00;99.90
8436;DHT22;4255;48.730;9.156;2022-11-03T00:12:13;9.00;99.90
8436;DHT22;4255;48.730;9.156;2022-11-03T00:14:38;9.00;99.90
8436;DHT22;4255;48.730;9.156;2022-11-03T00:17:04;9.00;99.90
8436;DHT22;4255;48.730;9.156;2022-11-03T00:19:30;9.10;99.90
8436;DHT22;4255;48.730;9.156;2022-11-03T00:21:55;9.20;99.90
8436;DHT22;4255;48.730;9.156;2022-11-03T00:24:23;9.10;99.90
8436;DHT22;4255;48.730;9.156;2022-11-03T00:26:49;9.10;99.90
8436;DHT22;4255;48.730;9.156;2022-11-03T00:29:14;9.00;99.90
8436;DHT22;4255;48.730;9.156;2022-11-03T00:31:42;9.00;99.90
8436;DHT22;4255;48.730;9.156;2022-11-03T00:34:08;9.00;99.90
8436;DHT22;4255;48.730;9.156;2022-11-03T00:36:36;9.00;99.90
8436;DHT22;4255;48.730;9.156;2022-11-03T00:39:04;9.00;99.90
8436;DHT22;4255;48.730;9.156;2022-11-03T00:41:30;9.00;99.90
8436;DHT22;4255;48.730;9.156;2022-11-03T00:43:56;9.00;99.90
8436;DHT22;4255;48.730;9.156;2022-11-03T00:46:22;8.90;99.90
8436;DHT22;4255;48.730;9.156;2022-11-03T00:48:48;8.90;99.90
8436;DHT22;4255;48.730;9.156;2022-11-03T00:51:24;8.90;99.90
8436;DHT22;4255;48.730;9.156;2022-11-03T00:53:54;8.90;99.90
8436;DHT22;4255;48.730;9.156;2022-11-03T00:56:26;8.90;99.90
8436;DHT22;4255;48.730;9.156;2022-11-03T00:58:53;8.80;99.90
8436;DHT22;4255;48.730;9.156;2022-11-03T01:01:24;8.80;99.90
8436;DHT22;4255;48.730;9.156;2022-11-03T01:03:52;8.90;99.90
8436;DHT22;4255;48.730;9.156;2022-11-03T01:06:40;8.90;99.90
8436;DHT22;4255;48.730;9.156;2022-11-03T01:14:28;8.80;99.90
8436;DHT22;4255;48.730;9.156;2022-11-03T01:16:54;8.70;99.90
8436;DHT22;4255;48.730;9.156;2022-11-03T01:19:19;8.70;99.90
8436;DHT22;4255;48.730;9.156;2022-11-03T01:21:45;8.70;99.90
8436;DHT22;4255;48.730;9.156;2022-11-03T01:24:11;8.60;99.90
8436;DHT22;4255;48.730;9.156;2022-11-03T01:26:36;8.60;99.90
8436;DHT22;4255;48.730;9.156;2022-11-03T01:29:02;8.50;99.90
8436;DHT22;4255;48.730;9.156;2022-11-03T01:31:29;8.30;99.90
8436;DHT22;4255;48.730;9.156;2022-11-03T01:33:56;8.30;99.90
8436;DHT22;4255;48.730;9.156;2022-11-03T01:36:21;8.40;99.90
8436;DHT22;4255;48.730;9.156;2022-11-03T01:38:47;8.40;99.90
8436;DHT22;4255;48.730;9.156;2022-11-03T01:41:16;8.30;99.90
8436;DHT22;4255;48.730;9.156;2022-11-03T01:43:42;8.40;99.90
8436;DHT22;4255;48.730;9.156;2022-11-03T01:48:50;8.30;99.90
8436;DHT22;4255;48.730;9.156;2022-11-03T01:51:20;8.30;99.90
8436;DHT22;4255;48.730;9.156;2022-11-03T01:53:47;8.20;99.90
8436;DHT22;4255;48.730;9.156;2022-11-03T01:56:15;8.20;99.90
8436;DHT22;4255;48.730;9.156;2022-11-03T01:58:42;8.20;99.90
8436;DHT22;4255;48.730;9.156;2022-11-03T02:01:11;8.20;99.90
8436;DHT22;4255;48.730;9.156;2022-11-03T02:03:40;8.20;99.90
8436;DHT22;4255;48.730;9.156;2022-11-03T02:06:07;8.20;99.90
8436;DHT22;4255;48.730;9.156;2022-11-03T02:08:40;8.20;99.90
8436;DHT22;4255;48.730;9.156;2022-11-03T02:11:06;8.10;99.90
8436;DHT22;4255;48.730;9.156;2022-11-03T02:13:50;8.10;99.90
8436;DHT22;4255;48.730;9.156;2022-11-03T02:16:18;8.10;99.90
8436;DHT22;4255;48.730;9.156;2022-11-03T02:18:46;8.10;99.90
8436;DHT22;4255;48.730;9.156;2022-11-03T02:21:28;8.10;99.90
8436;DHT22;4255;48.730;9.156;2022-11-03T02:24:17;8.10;99.90
8436;DHT22;4255;48.730;9.156;2022-11-03T02:26:50;8.20;99.90
8436;DHT22;4255;48.730;9.156;2022-11-03T02:29:18;8.20;99.90
8436;DHT22;4255;48.730;9.156;2022-11-03T02:31:53;8.20;99.90
8436;DHT22;4255;48.730;9.156;2022-11-03T02:34:39;8.30;99.90
8436;DHT22;4255;48.730;9.156;2022-11-03T02:37:13;8.10;99.90
8436;DHT22;4255;48.730;9.156;2022-11-03T02:39:45;8.20;99.90
8436;DHT22;4255;48.730;9.156;2022-11-03T02:42:12;8.30;99.90
8436;DHT22;4255;48.730;9.156;2022-11-03T02:44:40;8.30;99.90
8436;DHT22;4255;48.730;9.156;2022-11-03T02:47:09;8.40;99.90
8436;DHT22;4255;48.730;9.156;2022-11-03T02:49:40;8.40;99.90
8436;DHT22;4255;48.730;9.156;2022-11-03T02:52:34;8.50;99.90
8436;DHT22;4255;48.730;9.156;2022-11-03T02:58:23;8.20;99.90
8436;DHT22;4255;48.730;9.156;2022-11-03T03:00:53;8.20;99.90
8436;DHT22;4255;48.730;9.156;2022-11-03T03:03:31;8.10;99.90
8436;DHT22;4255;48.730;9.156;2022-11-03T03:06:17;8.10;99.90
8436;DHT22;4255;48.730;9.156;2022-11-03T03:08:46;8.00;99.90
8436;DHT22;4255;48.730;9.156;2022-11-03T03:11:14;8.00;99.90
8436;DHT22;4255;48.730;9.156;2022-11-03T03:13:42;8.00;99.90
8436;DHT22;4255;48.730;9.156;2022-11-03T03:16:15;8.00;99.90
8436;DHT22;4255;48.730;9.156;2022-11-03T03:18:50;8.10;99.90
8436;DHT22;4255;48.730;9.156;2022-11-03T03:21:29;8.10;99.90
8436;DHT22;4255;48.730;9.156;2022-11-03T03:24:04;8.10;99.90
8436;DHT22;4255;48.730;9.156;2022-11-03T03:26:43;8.10;99.90
8436;DHT22;4255;48.730;9.156;2022-11-03T03:29:14;8.10;99.90
8436;DHT22;4255;48.730;9.156;2022-11-03T03:31:44;8.20;99.90
8436;DHT22;4255;48.730;9.156;2022-11-03T03:34:13;8.20;99.90
8436;DHT22;4255;48.730;9.156;2022-11-03T03:36:42;8.10;99.90
8436;DHT22;4255;48.730;9.156;2022-11-03T03:39:10;8.10;99.90
8436;DHT22;4255;48.730;9.156;2022-11-03T03:41:38;8.00;99.90
8436;DHT22;4255;48.730;9.156;2022-11-03T03:44:07;8.10;99.90
8436;DHT22;4255;48.730;9.156;2022-11-03T03:46:41;8.10;99.90
8436;DHT22;4255;48.730;9.156;2022-11-03T03:49:08;8.10;99.90
8436;DHT22;4255;48.730;9.156;2022-11-03T03:51:34;8.10;99.90
8436;DHT22;4255;48.730;9.156;2022-11-03T03:53:59;8.10;99.90
8436;DHT22;4255;48.730;9.156;2022-11-03T03:56:34;8.10;99.90
8436;DHT22;4255;48.730;9.156;2022-11-03T03:59:02;8.10;99.90
8436;DHT22;4255;48.730;9.156;2022-11-03T04:01:29;8.10;99.90
8436;DHT22;4255;48.730;9.156;2022-11-03T04:03:54;8.10;99.90
8436;DHT22;4255;48.730;9.156;2022-11-03T04:06:20;7.90;99.90
8436;DHT22;4255;48.730;9.156;2022-11-03T04:08:45;7.90;99.90
8436;DHT22;4255;48.730;9.156;2022-11-03T04:11:11;7.80;99.90
8436;DHT22;4255;48.730;9.156;2022-11-03T04:13:56;7.80;99.90
8436;DHT22;4255;48.730;9.156;2022-11-03T04:16:40;7.80;99.90
8436;DHT22;4255;48.730;9.156;2022-11-03T04:19:24;7.80;99.90
8436;DHT22;4255;48.730;9.156;2022-11-03T04:22:08;7.70;99.90
8436;DHT22;4255;48.730;9.156;2022-11-03T04:24:48;7.70;99.90
8436;DHT22;4255;48.730;9.156;2022-11-03T04:27:24;7.70;99.90
8436;DHT22;4255;48.730;9.156;2022-11-03T04:29:52;7.70;99.90
8436;DHT22;4255;48.730;9.156;2022-11-03T04:32:20;7.70;99.90
8436;DHT22;4255;48.730;9.156;2022-11-03T04:34:47;7.60;99.90
8436;DHT22;4255;48.730;9.156;2022-11-03T04:37:13;7.40;99.90
8436;DHT22;4255;48.730;9.156;2022-11-03T04:39:39;7.40;99.90
8436;DHT22;4255;48.730;9.156;2022-11-03T04:42:15;7.50;99.90
8436;DHT22;4255;48.730;9.156;2022-11-03T04:44:42;7.60;99.90
8436;DHT22;4255;48.730;9.156;2022-11-03T04:47:12;7.60;99.90
8436;DHT22;4255;48.730;9.156;2022-11-03T04:49:38;7.60;99.90
8436;DHT22;4255;48.730;9.156;2022-11-03T04:52:11;7.60;99.90
8436;DHT22;4255;48.730;9.156;2022-11-03T04:54:38;7.50;99.90
8436;DHT22;4255;48.730;9.156;2022-11-03T04:57:11;7.50;99.90
8436;DHT22;4255;48.730;9.156;2022-11-03T04:59:42;7.50;99.90
8436;DHT22;4255;48.730;9.156;2022-11-03T05:02:11;7.60;99.90
8436;DHT22;4255;48.730;9.156;2022-11-03T05:04:37;7.60;99.90
8436;DHT22;4255;48.730;9.156;2022-11-03T05:07:20;7.60;99.90
8436;DHT22;4255;48.730;9.156;2022-11-03T05:09:46;7.60;99.90
8436;DHT22;4255;48.730;9.156;2022-11-03T05:12:12;7.60;99.90
8436;DHT22;4255;48.730;9.156;2022-11-03T05:14:38;7.50;99.90
8436;DHT22;4255;48.730;9.156;2022-11-03T05:17:22;7.50;99.90
8436;DHT22;4255;48.730;9.156;2022-11-03T05:19:50;7.50;99.90
8436;DHT22;4255;48.730;9.156;2022-11-03T05:22:21;7.50;99.90
8436;DHT22;4255;48.730;9.156;2022-11-03T05:24:48;7.40;99.90
8436;DHT22;4255;48.730;9.156;2022-11-03T05:27:19;7.40;99.90
8436;DHT22;4255;48.730;9.156;2022-11-03T05:29:46;7.30;99.90
8436;DHT22;4255;48.730;9.156;2022-11-03T05:32:20;7.40;99.90
8436;DHT22;4255;48.730;9.156;2022-11-03T05:34:47;7.40;99.90
8436;DHT22;4255;48.730;9.156;2022-11-03T05:37:32;7.30;99.90
8436;DHT22;4255;48.730;9.156;2022-11-03T05:40:05;7.40;99.90
8436;DHT22;4255;48.730;9.156;2022-11-03T05:42:37;7.40;99.90
8436;DHT22;4255;48.730;9.156;2022-11-03T05:47:39;7.40;99.90
8436;DHT22;4255;48.730;9.156;2022-11-03T05:50:33;7.30;99.90
8436;DHT22;4255;48.730;9.156;2022-11-03T05:55:48;7.40;99.90
8436;DHT22;4255;48.730;9.156;2022-11-03T05:58:38;7.30;99.90
8436;DHT22;4255;48.730;9.156;2022-11-03T06:01:27;7.30;99.90
8436;DHT22;4255;48.730;9.156;2022-11-03T06:03:55;7.30;99.90
8436;DHT22;4255;48.730;9.156;2022-11-03T06:06:36;7.20;99.90
8436;DHT22;4255;48.730;9.156;2022-11-03T06:09:13;7.20;99.90
8436;DHT22;4255;48.730;9.156;2022-11-03T06:11:40;7.20;99.90
8436;DHT22;4255;48.730;9.156;2022-11-03T06:14:24;7.20;99.90
8436;DHT22;4255;48.730;9.156;2022-11-03T06:17:02;7.30;99.90
8436;DHT22;4255;48.730;9.156;2022-11-03T06:19:38;7.30;99.90
8436;DHT22;4255;48.730;9.156;2022-11-03T06:22:33;7.40;99.90
8436;DHT22;4255;48.730;9.156;2022-11-03T06:25:23;7.30;99.90
8436;DHT22;4255;48.730;9.156;2022-11-03T06:27:51;7.20;99.90
8436;DHT22;4255;48.730;9.156;2022-11-03T06:30:24;7.30;99.90
8436;DHT22;4255;48.730;9.156;2022-11-03T06:32:51;7.30;99.90
8436;DHT22;4255;48.730;9.156;2022-11-03T06:35:18;7.30;99.90
8436;DHT22;4255;48.730;9.156;2022-11-03T06:37:44;7.40;99.90
8436;DHT22;4255;48.730;9.156;2022-11-03T06:42:36;7.60;99.90
8436;DHT22;4255;48.730;9.156;2022-11-03T06:45:16;7.70;99.90
8436;DHT22;4255;48.730;9.156;2022-11-03T06:47:43;7.70;99.90
8436;DHT22;4255;48.730;9.156;2022-11-03T06:50:41;7.90;99.90
8436;DHT22;4255;48.730;9.156;2022-11-03T06:53:08;8.00;99.90
8436;DHT22;4255;48.730;9.156;2022-11-03T06:55:35;8.10;99.90
8436;DHT22;4255;48.730;9.156;2022-11-03T06:58:27;8.30;99.90
8436;DHT22;4255;48.730;9.156;2022-11-03T07:00:57;8.40;99.90
8436;DHT22;4255;48.730;9.156;2022-11-03T07:03:29;8.50;99.90
8436;DHT22;4255;48.730;9.156;2022-11-03T07:08:42;8.60;99.90
8436;DHT22;4255;48.730;9.156;2022-11-03T07:11:20;8.70;99.90
8436;DHT22;4255;48.730;9.156;2022-11-03T07:13:49;8.80;99.90
8436;DHT22;4255;48.730;9.156;2022-11-03T07:18:49;9.10;99.90
8436;DHT22;4255;48.730;9.156;2022-11-03T07:24:35;9.60;99.90
8436;DHT22;4255;48.730;9.156;2022-11-03T07:27:14;9.40;99.90
8436;DHT22;4255;48.730;9.156;2022-11-03T07:29:44;9.20;99.90
8436;DHT22;4255;48.730;9.156;2022-11-03T07:32:19;9.20;99.90
8436;DHT22;4255;48.730;9.156;2022-11-03T07:34:46;9.40;99.90
8436;DHT22;4255;48.730;9.156;2022-11-03T07:37:21;9.50;99.90
8436;DHT22;4255;48.730;9.156;2022-11-03T07:39:48;9.50;99.90
8436;DHT22;4255;48.730;9.156;2022-11-03T07:42:23;9.50;99.90
8436;DHT22;4255;48.730;9.156;2022-11-03T07:44:49;9.70;99.90
8436;DHT22;4255;48.730;9.156;2022-11-03T07:47:21;9.70;99.90
8436;DHT22;4255;48.730;9.156;2022-11-03T07:49:50;9.80;99.90
8436;DHT22;4255;48.730;9.156;2022-11-03T07:52:21;9.80;99.90
8436;DHT22;4255;48.730;9.156;2022-11-03T07:54:47;9.90;99.90
8436;DHT22;4255;48.730;9.156;2022-11-03T07:57:23;9.90;99.90
8436;DHT22;4255;48.730;9.156;2022-11-03T07:59:54;10.00;99.90
8436;DHT22;4255;48.730;9.156;2022-11-03T08:05:09;10.20;99.90
8436;DHT22;4255;48.730;9.156;2022-11-03T08:07:34;10.30;99.90
8436;DHT22;4255;48.730;9.156;2022-11-03T08:10:00;10.40;99.90
8436;DHT22;4255;48.730;9.156;2022-11-03T08:12:26;10.40;99.90
8436;DHT22;4255;48.730;9.156;2022-11-03T08:14:51;10.40;99.90
8436;DHT22;4255;48.730;9.156;2022-11-03T08:17:17;10.50;99.90
8436;DHT22;4255;48.730;9.156;2022-11-03T08:19:42;10.60;99.90
8436;DHT22;4255;48.730;9.156;2022-11-03T08:22:08;10.70;99.90
8436;DHT22;4255;48.730;9.156;2022-11-03T08:24:34;10.90;99.90
8436;DHT22;4255;48.730;9.156;2022-11-03T08:26:59;10.90;99.90
8436;DHT22;4255;48.730;9.156;2022-11-03T08:29:25;10.90;99.90
8436;DHT22;4255;48.730;9.156;2022-11-03T08:31:52;11.00;99.90
8436;DHT22;4255;48.730;9.156;2022-11-03T08:34:18;11.20;99.90
8436;DHT22;4255;48.730;9.156;2022-11-03T08:36:44;11.30;99.90
8436;DHT22;4255;48.730;9.156;2022-11-03T08:39:10;11.40;99.90
8436;DHT22;4255;48.730;9.156;2022-11-03T08:41:35;11.60;99.90
8436;DHT22;4255;48.730;9.156;2022-11-03T08:44:01;11.70;99.90
8436;DHT22;4255;48.730;9.156;2022-11-03T08:46:27;11.80;99.90
8436;DHT22;4255;48.730;9.156;2022-11-03T08:48:53;11.80;99.90
8436;DHT22;4255;48.730;9.156;2022-11-03T08:51:18;11.90;99.90
8436;DHT22;4255;48.730;9.156;2022-11-03T08:53:44;11.90;99.90
8436;DHT22;4255;48.730;9.156;2022-11-03T08:56:11;12.10;99.90
8436;DHT22;4255;48.730;9.156;2022-11-03T08:58:37;12.20;99.90
8436;DHT22;4255;48.730;9.156;2022-11-03T09:01:03;12.20;99.90
8436;DHT22;4255;48.730;9.156;2022-11-03T09:03:28;12.20;99.90
8436;DHT22;4255;48.730;9.156;2022-11-03T09:05:54;12.30;99.90
8436;DHT22;4255;48.730;9.156;2022-11-03T09:08:20;12.20;99.90
8436;DHT22;4255;48.730;9.156;2022-11-03T09:10:45;12.20;99.90
8436;DHT22;4255;48.730;9.156;2022-11-03T09:13:11;12.30;99.90
8436;DHT22;4255;48.730;9.156;2022-11-03T09:15:36;12.50;99.90
8436;DHT22;4255;48.730;9.156;2022-11-03T09:18:02;12.60;99.90
8436;DHT22;4255;48.730;9.156;2022-11-03T09:20:28;12.80;99.90
8436;DHT22;4255;48.730;9.156;2022-11-03T09:22:55;12.80;99.90
8436;DHT22;4255;48.730;9.156;2022-11-03T09:25:20;12.90;99.90
8436;DHT22;4255;48.730;9.156;2022-11-03T09:27:46;12.90;99.90
8436;DHT22;4255;48.730;9.156;2022-11-03T09:30:12;13.10;99.90
8436;DHT22;4255;48.730;9.156;2022-11-03T09:32:38;13.20;99.90
8436;DHT22;4255;48.730;9.156;2022-11-03T09:35:05;13.30;99.90
8436;DHT22;4255;48.730;9.156;2022-11-03T09:37:32;13.40;99.90
8436;DHT22;4255;48.730;9.156;2022-11-03T09:39:57;13.70;99.90
8436;DHT22;4255;48.730;9.156;2022-11-03T09:42:24;13.80;99.90
8436;DHT22;4255;48.730;9.156;2022-11-03T09:44:52;13.80;99.90
8436;DHT22;4255;48.730;9.156;2022-11-03T09:47:33;13.80;99.90
8436;DHT22;4255;48.730;9.156;2022-11-03T09:50:00;13.80;99.90
8436;DHT22;4255;48.730;9.156;2022-11-03T09:52:25;13.70;99.90
8436;DHT22;4255;48.730;9.156;2022-11-03T09:54:52;13.50;99.90
8436;DHT22;4255;48.730;9.156;2022-11-03T09:57:21;13.40;99.90
8436;DHT22;4255;48.730;9.156;2022-11-03T09:59:49;13.30;99.90
8436;DHT22;4255;48.730;9.156;2022-11-03T10:04:47;13.60;99.90
8436;DHT22;4255;48.730;9.156;2022-11-03T10:07:13;13.80;99.90
8436;DHT22;4255;48.730;9.156;2022-11-03T10:09:43;13.90;99.90
8436;DHT22;4255;48.730;9.156;2022-11-03T10:12:10;13.90;99.90
8436;DHT22;4255;48.730;9.156;2022-11-03T10:14:36;13.90;99.90
8436;DHT22;4255;48.730;9.156;2022-11-03T10:17:02;14.00;99.90
8436;DHT22;4255;48.730;9.156;2022-11-03T10:19:27;14.20;99.90
8436;DHT22;4255;48.730;9.156;2022-11-03T10:21:53;14.10;99.90
8436;DHT22;4255;48.730;9.156;2022-11-03T10:24:19;14.10;99.90
8436;DHT22;4255;48.730;9.156;2022-11-03T10:29:23;14.00;99.90
8436;DHT22;4255;48.730;9.156;2022-11-03T10:31:54;14.10;99.90
8436;DHT22;4255;48.730;9.156;2022-11-03T10:34:32;14.20;99.90
8436;DHT22;4255;48.730;9.156;2022-11-03T10:37:24;14.10;99.90
8436;DHT22;4255;48.730;9.156;2022-11-03T10:39:52;14.10;99.90
8436;DHT22;4255;48.730;9.156;2022-11-03T10:42:25;14.00;99.90
8436;DHT22;4255;48.730;9.156;2022-11-03T10:47:36;14.10;99.90
8436;DHT22;4255;48.730;9.156;2022-11-03T10:50:19;14.20;99.90
8436;DHT22;4255;48.730;9.156;2022-11-03T10:52:45;14.30;99.90
8436;DHT22;4255;48.730;9.156;2022-11-03T10:55:11;14.30;99.90
8436;DHT22;4255;48.730;9.156;2022-11-03T10:57:37;14.40;99.90
8436;DHT22;4255;48.730;9.156;2022-11-03T11:00:03;14.50;99.90
8436;DHT22;4255;48.730;9.156;2022-11-03T11:02:30;14.60;99.90
8436;DHT22;4255;48.730;9.156;2022-11-03T11:04:58;14.70;99.90
8436;DHT22;4255;48.730;9.156;2022-11-03T11:07:43;14.80;99.90
8436;DHT22;4255;48.730;9.156;2022-11-03T11:10:24;14.70;99.90
8436;DHT22;4255;48.730;9.156;2022-11-03T11:15:49;14.80;99.90
8436;DHT22;4255;48.730;9.156;2022-11-03T11:20:57;14.50;99.90
8436;DHT22;4255;48.730;9.156;2022-11-03T11:28:31;14.60;99.90
8436;DHT22;4255;48.730;9.156;2022-11-03T11:30:57;14.70;99.90
8436;DHT22;4255;48.730;9.156;2022-11-03T11:33:25;14.80;99.90
8436;DHT22;4255;48.730;9.156;2022-11-03T11:41:16;14.80;99.90
8436;DHT22;4255;48.730;9.156;2022-11-03T11:43:42;14.70;99.90
8436;DHT22;4255;48.730;9.156;2022-11-03T11:46:39;14.70;99.90
8436;DHT22;4255;48.730;9.156;2022-11-03T11:51:33;15.00;99.90
8436;DHT22;4255;48.730;9.156;2022-11-03T11:53:59;15.00;99.90
8436;DHT22;4255;48.730;9.156;2022-11-03T11:56:29;15.10;99.90
8436;DHT22;4255;48.730;9.156;2022-11-03T11:58:55;15.20;99.90
8436;DHT22;4255;48.730;9.156;2022-11-03T12:03:57;15.10;99.90
8436;DHT22;4255;48.730;9.156;2022-11-03T12:09:16;14.90;99.90
8436;DHT22;4255;48.730;9.156;2022-11-03T12:11:44;15.10;99.90
8436;DHT22;4255;48.730;9.156;2022-11-03T12:14:38;15.20;99.90
8436;DHT22;4255;48.730;9.156;2022-11-03T12:19:46;15.10;99.90
8436;DHT22;4255;48.730;9.156;2022-11-03T12:29:52;15.20;99.90
8436;DHT22;4255;48.730;9.156;2022-11-03T12:32:18;15.40;99.90
8436;DHT22;4255;48.730;9.156;2022-11-03T12:34:44;15.40;99.90
8436;DHT22;4255;48.730;9.156;2022-11-03T12:37:10;15.30;99.90
8436;DHT22;4255;48.730;9.156;2022-11-03T12:39:35;15.40;99.90
8436;DHT22;4255;48.730;9.156;2022-11-03T12:42:01;15.30;99.90
8436;DHT22;4255;48.730;9.156;2022-11-03T12:44:27;15.30;99.90
8436;DHT22;4255;48.730;9.156;2022-11-03T12:46:52;15.40;99.90
8436;DHT22;4255;48.730;9.156;2022-11-03T12:49:18;15.60;99.90
8436;DHT22;4255;48.730;9.156;2022-11-03T12:51:44;15.60;99.90
8436;DHT22;4255;48.730;9.156;2022-11-03T12:54:09;15.80;99.90
8436;DHT22;4255;48.730;9.156;2022-11-03T12:56:35;15.80;99.90
8436;DHT22;4255;48.730;9.156;2022-11-03T12:59:00;15.70;99.90
8436;DHT22;4255;48.730;9.156;2022-11-03T13:01:26;15.60;99.90
8436;DHT22;4255;48.730;9.156;2022-11-03T13:03:52;15.60;99.90
8436;DHT22;4255;48.730;9.156;2022-11-03T13:06:17;15.70;99.90
8436;DHT22;4255;48.730;9.156;2022-11-03T13:08:43;15.60;99.90
8436;DHT22;4255;48.730;9.156;2022-11-03T13:11:09;15.70;99.90
8436;DHT22;4255;48.730;9.156;2022-11-03T13:13:53;15.70;99.90
8436;DHT22;4255;48.730;9.156;2022-11-03T13:16:19;15.70;99.90
8436;DHT22;4255;48.730;9.156;2022-11-03T13:18:45;15.50;99.90
8436;DHT22;4255;48.730;9.156;2022-11-03T13:21:11;15.50;99.90
8436;DHT22;4255;48.730;9.156;2022-11-03T13:23:38;15.50;99.90
8436;DHT22;4255;48.730;9.156;2022-11-03T13:26:03;15.50;99.90
8436;DHT22;4255;48.730;9.156;2022-11-03T13:28:29;15.50;99.90
8436;DHT22;4255;48.730;9.156;2022-11-03T13:30:55;15.50;99.90
8436;DHT22;4255;48.730;9.156;2022-11-03T13:33:20;15.50;99.90
8436;DHT22;4255;48.730;9.156;2022-11-03T13:35:46;15.60;99.90
8436;DHT22;4255;48.730;9.156;2022-11-03T13:38:11;15.60;99.90
8436;DHT22;4255;48.730;9.156;2022-11-03T13:40:37;15.70;99.90
8436;DHT22;4255;48.730;9.156;2022-11-03T13:43:02;15.60;99.90
8436;DHT22;4255;48.730;9.156;2022-11-03T13:45:28;15.30;99.90
8436;DHT22;4255;48.730;9.156;2022-11-03T13:47:54;15.30;99.90
8436;DHT22;4255;48.730;9.156;2022-11-03T13:50:19;15.50;99.90
8436;DHT22;4255;48.730;9.156;2022-11-03T13:52:45;15.50;99.90
8436;DHT22;4255;48.730;9.156;2022-11-03T13:55:11;15.60;99.90
8436;DHT22;4255;48.730;9.156;2022-11-03T13:57:37;15.60;99.90
8436;DHT22;4255;48.730;9.156;2022-11-03T14:00:03;15.70;99.90
8436;DHT22;4255;48.730;9.156;2022-11-03T14:02:30;15.70;99.90
8436;DHT22;4255;48.730;9.156;2022-11-03T14:04:55;15.60;99.90
8436;DHT22;4255;48.730;9.156;2022-11-03T14:07:21;15.30;99.90
8436;DHT22;4255;48.730;9.156;2022-11-03T14:09:47;15.20;99.90
8436;DHT22;4255;48.730;9.156;2022-11-03T14:12:12;15.00;99.90
8436;DHT22;4255;48.730;9.156;2022-11-03T14:15:05;14.90;99.90
8436;DHT22;4255;48.730;9.156;2022-11-03T14:17:32;14.80;99.90
8436;DHT22;4255;48.730;9.156;2022-11-03T14:19:58;14.50;99.90
8436;DHT22;4255;48.730;9.156;2022-11-03T14:22:23;14.40;99.90
8436;DHT22;4255;48.730;9.156;2022-11-03T14:24:50;14.50;99.90
8436;DHT22;4255;48.730;9.156;2022-11-03T14:27:17;14.60;99.90
8436;DHT22;4255;48.730;9.156;2022-11-03T14:29:43;14.60;99.90
8436;DHT22;4255;48.730;9.156;2022-11-03T14:32:10;14.60;99.90
8436;DHT22;4255;48.730;9.156;2022-11-03T14:34:35;14.70;99.90
8436;DHT22;4255;48.730;9.156;2022-11-03T14:37:02;14.80;99.90
8436;DHT22;4255;48.730;9.156;2022-11-03T14:39:27;14.90;99.90
8436;DHT22;4255;48.730;9.156;2022-11-03T14:41:53;15.00;99.90
8436;DHT22;4255;48.730;9.156;2022-11-03T14:44:29;15.00;99.90
8436;DHT22;4255;48.730;9.156;2022-11-03T14:46:55;14.90;99.90
8436;DHT22;4255;48.730;9.156;2022-11-03T14:49:21;14.70;99.90
8436;DHT22;4255;48.730;9.156;2022-11-03T14:51:47;14.70;99.90
8436;DHT22;4255;48.730;9.156;2022-11-03T14:54:12;14.70;99.90
8436;DHT22;4255;48.730;9.156;2022-11-03T14:56:38;14.70;99.90
8436;DHT22;4255;48.730;9.156;2022-11-03T14:59:03;14.40;99.90
8436;DHT22;4255;48.730;9.156;2022-11-03T15:01:30;14.20;99.90
8436;DHT22;4255;48.730;9.156;2022-11-03T15:03:55;14.20;99.90
8436;DHT22;4255;48.730;9.156;2022-11-03T15:06:21;14.10;99.90
8436;DHT22;4255;48.730;9.156;2022-11-03T15:08:46;14.10;99.90
8436;DHT22;4255;48.730;9.156;2022-11-03T15:11:12;14.20;99.90
8436;DHT22;4255;48.730;9.156;2022-11-03T15:13:38;14.30;99.90
8436;DHT22;4255;48.730;9.156;2022-11-03T15:16:04;14.30;99.90
8436;DHT22;4255;48.730;9.156;2022-11-03T15:18:30;14.40;99.90
8436;DHT22;4255;48.730;9.156;2022-11-03T15:20:56;14.40;99.90
8436;DHT22;4255;48.730;9.156;2022-11-03T15:23:21;14.30;99.90
8436;DHT22;4255;48.730;9.156;2022-11-03T15:25:47;14.20;99.90
8436;DHT22;4255;48.730;9.156;2022-11-03T15:28:13;13.90;99.90
8436;DHT22;4255;48.730;9.156;2022-11-03T15:30:38;13.80;99.90
8436;DHT22;4255;48.730;9.156;2022-11-03T15:33:04;13.80;99.90
8436;DHT22;4255;48.730;9.156;2022-11-03T15:35:30;13.80;99.90
8436;DHT22;4255;48.730;9.156;2022-11-03T15:37:56;13.90;99.90
8436;DHT22;4255;48.730;9.156;2022-11-03T15:40:24;14.10;99.90
8436;DHT22;4255;48.730;9.156;2022-11-03T15:42:50;14.10;99.90
8436;DHT22;4255;48.730;9.156;2022-11-03T15:45:16;14.20;99.90
8436;DHT22;4255;48.730;9.156;2022-11-03T15:47:41;14.30;99.90
8436;DHT22;4255;48.730;9.156;2022-11-03T15:50:08;14.10;99.90
8436;DHT22;4255;48.730;9.156;2022-11-03T15:52:34;14.20;99.90
8436;DHT22;4255;48.730;9.156;2022-11-03T15:55:00;14.00;99.90
8436;DHT22;4255;48.730;9.156;2022-11-03T15:57:25;13.90;99.90
8436;DHT22;4255;48.730;9.156;2022-11-03T15:59:51;13.60;99.90
8436;DHT22;4255;48.730;9.156;2022-11-03T16:02:17;13.60;99.90
8436;DHT22;4255;48.730;9.156;2022-11-03T16:04:42;13.60;99.90
8436;DHT22;4255;48.730;9.156;2022-11-03T16:07:08;13.50;99.90
8436;DHT22;4255;48.730;9.156;2022-11-03T16:09:33;13.50;99.90
8436;DHT22;4255;48.730;9.156;2022-11-03T16:11:59;13.60;99.90
8436;DHT22;4255;48.730;9.156;2022-11-03T16:14:25;13.60;99.90
8436;DHT22;4255;48.730;9.156;2022-11-03T16:16:50;13.50;99.90
8436;DHT22;4255;48.730;9.156;2022-11-03T16:19:16;13.50;99.90
8436;DHT22;4255;48.730;9.156;2022-11-03T16:21:42;13.50;99.90
8436;DHT22;4255;48.730;9.156;2022-11-03T16:24:07;13.40;99.90
8436;DHT22;4255;48.730;9.156;2022-11-03T16:26:33;13.40;99.90
8436;DHT22;4255;48.730;9.156;2022-11-03T16:28:59;13.30;99.90
8436;DHT22;4255;48.730;9.156;2022-11-03T16:31:24;13.30;99.90
8436;DHT22;4255;48.730;9.156;2022-11-03T16:33:50;13.40;99.90
8436;DHT22;4255;48.730;9.156;2022-11-03T16:36:16;13.50;99.90
8436;DHT22;4255;48.730;9.156;2022-11-03T16:38:43;13.40;99.90
8436;DHT22;4255;48.730;9.156;2022-11-03T16:41:08;13.50;99.90
8436;DHT22;4255;48.730;9.156;2022-11-03T16:43:34;13.50;99.90
8436;DHT22;4255;48.730;9.156;2022-11-03T16:45:59;13.60;99.90
8436;DHT22;4255;48.730;9.156;2022-11-03T16:48:25;13.60;99.90
8436;DHT22;4255;48.730;9.156;2022-11-03T16:50:50;13.60;99.90
8436;DHT22;4255;48.730;9.156;2022-11-03T16:53:16;13.60;99.90
8436;DHT22;4255;48.730;9.156;2022-11-03T16:55:42;13.70;99.90
8436;DHT22;4255;48.730;9.156;2022-11-03T16:58:10;13.80;99.90
8436;DHT22;4255;48.730;9.156;2022-11-03T17:00:36;13.70;99.90
8436;DHT22;4255;48.730;9.156;2022-11-03T17:03:01;13.70;99.90
8436;DHT22;4255;48.730;9.156;2022-11-03T17:05:27;13.80;99.90
8436;DHT22;4255;48.730;9.156;2022-11-03T17:07:53;13.70;99.90
8436;DHT22;4255;48.730;9.156;2022-11-03T17:10:18;13.60;99.90
8436;DHT22;4255;48.730;9.156;2022-11-03T17:12:44;13.30;99.90
8436;DHT22;4255;48.730;9.156;2022-11-03T17:15:10;13.40;99.90
8436;DHT22;4255;48.730;9.156;2022-11-03T17:17:35;13.40;99.90
8436;DHT22;4255;48.730;9.156;2022-11-03T17:20:02;13.40;99.90
8436;DHT22;4255;48.730;9.156;2022-11-03T17:22:28;13.40;99.90
8436;DHT22;4255;48.730;9.156;2022-11-03T17:24:54;13.60;99.90
8436;DHT22;4255;48.730;9.156;2022-11-03T17:29:59;13.60;99.90
8436;DHT22;4255;48.730;9.156;2022-11-03T17:32:36;13.70;99.90
8436;DHT22;4255;48.730;9.156;2022-11-03T17:35:09;13.80;99.90
8436;DHT22;4255;48.730;9.156;2022-11-03T17:37:38;13.80;99.90